TimeCET,TemperatureF,Dew PointF,Humidity,Sea Level PressureIn,VisibilityMPH,Wind Direction,Wind SpeedMPH,Gust SpeedMPH,PrecipitationIn,Events,Conditions,WindDirDegrees,DateUTC
12:55 AM,24.8,14.0,64,29.92,-9999.0,NNW,2.3,-,N/A,,Clear,340,2013-03-01 23:55:00
1:00 AM,25,14,49,,6,NNW,2.3,,,,,340,2013-03-02 00:00:00
3:55 AM,24.8,10.4,54,29.89,-9999.0,East,4.6,-,N/A,,Clear,100,2013-03-02 02:55:00
4:00 AM,25,10,39,,6,East,4.6,,,,,100,2013-03-02 03:00:00
4:55 AM,24.8,10.4,54,29.89,-9999.0,East,4.6,-,N/A,,Clear,100,2013-03-02 03:55:00
5:55 AM,24.8,10.4,54,29.89,-9999.0,East,4.6,-,N/A,,Clear,100,2013-03-02 04:55:00
6:55 AM,23.0,10.4,59,29.89,-9999.0,East,3.5,-,N/A,,Clear,100,2013-03-02 05:55:00
7:00 AM,24,10,41,,47,East,3.5,,,,,100,2013-03-02 06:00:00
7:55 AM,24.8,10.4,54,29.89,-9999.0,East,2.3,-,N/A,,Clear,100,2013-03-02 06:55:00
8:55 AM,26.6,10.4,51,29.92,-9999.0,East,4.6,-,N/A,,Clear,100,2013-03-02 07:55:00
9:55 AM,28.4,10.4,47,29.92,-9999.0,East,2.3,-,N/A,,Clear,100,2013-03-02 08:55:00
10:55 AM,30.2,10.4,44,29.95,-9999.0,East,3.5,-,N/A,,Clear,90,2013-03-02 09:55:00
11:55 AM,32.0,10.4,41,29.92,-9999.0,East,4.6,-,N/A,,Clear,90,2013-03-02 10:55:00
1:00 PM,32,13,31,,47,ESE,5.8,,,,,120,2013-03-02 12:00:00
1:55 PM,33.8,15.8,48,29.95,-9999.0,SE,3.5,-,N/A,,Clear,130,2013-03-02 12:55:00
2:55 PM,33.8,17.6,52,29.95,-9999.0,SE,8.1,-,N/A,,Clear,130,2013-03-02 13:55:00
3:55 PM,33.8,17.6,52,29.92,-9999.0,SSE,6.9,-,N/A,,Clear,150,2013-03-02 14:55:00
4:00 PM,33,17,38,,47,SSE,6.9,,,,,150,2013-03-02 15:00:00
4:55 PM,32.0,17.6,55,29.95,-9999.0,SSE,5.8,-,N/A,,Clear,150,2013-03-02 15:55:00
5:55 PM,30.2,17.6,60,29.95,-9999.0,SE,4.6,-,N/A,,Clear,140,2013-03-02 16:55:00
6:55 PM,28.4,15.8,59,29.95,-9999.0,NW,2.3,-,N/A,,Clear,320,2013-03-02 17:55:00
7:00 PM,28,16,48,,7,NW,2.3,,,,,320,2013-03-02 18:00:00
9:55 PM,24.8,14.0,64,29.95,-9999.0,North,4.6,-,N/A,,Clear,10,2013-03-02 20:55:00
10:00 PM,26,14,46,,7,North,4.6,,,,,10,2013-03-02 21:00:00